Darlove, Mississippi
Current Conditions -  °F | °C
As of 9:53 AM on Saturday 20 Dec 2014 (Local Time) from KGLH Reporting Station
Clear Clear  
Wind Chill: 41°   Ceiling: Unl
Heat Index: 45°   Visibility: 7mi
Dew Point: 37°   Wind: 8mph
Humidity: 74%   Direction: 60°ENE
Pressure: 30.27"   Gusts: NA
Location:  33.1785°N, 90.8086°W
Report Text: KGLH 201553Z AUTO 06007KT 7SM CLR 07/03 A3027 RMK AO2 SLP260 T00720028
Loading
Personal Weather Stations






























Interactive Weather Map New forecast layout! Learn more

10-Day Weather Forecast

Advertisements
Track Severe Weather on mobile